sensor_id;sensor_type;location;lat;lon;timestamp;P1;durP1;ratioP1;P2;durP2;ratioP2
70363;SDS011;57785;43.898;1.886;2022-08-24T06:08:27;2.67;;;0.85;;
70363;SDS011;57785;43.898;1.886;2022-08-24T06:10:55;0.95;;;0.70;;
70363;SDS011;57785;43.898;1.886;2022-08-24T06:13:21;8.85;;;0.80;;
70363;SDS011;57785;43.898;1.886;2022-08-24T06:15:47;3.25;;;0.70;;
70363;SDS011;57785;43.898;1.886;2022-08-24T06:18:13;3.08;;;0.95;;
70363;SDS011;57785;43.898;1.886;2022-08-24T06:20:40;1.25;;;0.70;;
70363;SDS011;57785;43.898;1.886;2022-08-24T06:23:07;2.08;;;0.60;;
70363;SDS011;57785;43.898;1.886;2022-08-24T06:25:37;2.20;;;0.60;;
70363;SDS011;57785;43.898;1.886;2022-08-24T06:28:21;3.10;;;0.82;;
70363;SDS011;57785;43.898;1.886;2022-08-24T06:30:47;0.73;;;0.50;;
70363;SDS011;57785;43.898;1.886;2022-08-24T06:33:14;0.80;;;0.65;;
70363;SDS011;57785;43.898;1.886;2022-08-24T06:35:40;2.83;;;0.70;;
70363;SDS011;57785;43.898;1.886;2022-08-24T06:38:06;1.30;;;0.68;;
70363;SDS011;57785;43.898;1.886;2022-08-24T06:40:32;1.75;;;0.60;;
70363;SDS011;57785;43.898;1.886;2022-08-24T06:43:00;5.85;;;0.70;;
70363;SDS011;57785;43.898;1.886;2022-08-24T06:45:26;0.75;;;0.68;;
70363;SDS011;57785;43.898;1.886;2022-08-24T06:47:53;1.90;;;0.80;;
70363;SDS011;57785;43.898;1.886;2022-08-24T06:50:20;2.17;;;0.68;;
70363;SDS011;57785;43.898;1.886;2022-08-24T06:52:46;1.05;;;0.70;;
70363;SDS011;57785;43.898;1.886;2022-08-24T06:55:12;4.97;;;0.63;;
70363;SDS011;57785;43.898;1.886;2022-08-24T06:57:38;5.22;;;0.90;;
70363;SDS011;57785;43.898;1.886;2022-08-24T07:00:04;4.20;;;0.70;;
70363;SDS011;57785;43.898;1.886;2022-08-24T07:02:32;2.65;;;0.60;;
70363;SDS011;57785;43.898;1.886;2022-08-24T07:04:58;1.58;;;0.85;;
70363;SDS011;57785;43.898;1.886;2022-08-24T07:07:24;1.63;;;0.80;;
70363;SDS011;57785;43.898;1.886;2022-08-24T07:09:51;5.88;;;0.70;;
70363;SDS011;57785;43.898;1.886;2022-08-24T07:12:17;4.95;;;0.80;;
70363;SDS011;57785;43.898;1.886;2022-08-24T07:14:43;2.45;;;0.70;;
70363;SDS011;57785;43.898;1.886;2022-08-24T07:17:09;2.33;;;0.65;;
70363;SDS011;57785;43.898;1.886;2022-08-24T07:19:35;3.17;;;0.63;;
70363;SDS011;57785;43.898;1.886;2022-08-24T07:22:01;1.55;;;0.63;;
70363;SDS011;57785;43.898;1.886;2022-08-24T07:24:27;1.95;;;0.60;;
70363;SDS011;57785;43.898;1.886;2022-08-24T07:26:53;3.08;;;0.80;;
70363;SDS011;57785;43.898;1.886;2022-08-24T07:29:20;1.52;;;0.70;;
70363;SDS011;57785;43.898;1.886;2022-08-24T07:31:46;2.17;;;0.57;;
70363;SDS011;57785;43.898;1.886;2022-08-24T07:34:13;4.95;;;0.73;;
70363;SDS011;57785;43.898;1.886;2022-08-24T07:36:39;1.35;;;0.65;;
70363;SDS011;57785;43.898;1.886;2022-08-24T07:39:11;3.35;;;0.60;;
70363;SDS011;57785;43.898;1.886;2022-08-24T07:41:38;0.68;;;0.65;;
70363;SDS011;57785;43.898;1.886;2022-08-24T07:44:04;2.30;;;0.60;;
70363;SDS011;57785;43.898;1.886;2022-08-24T07:46:31;3.03;;;0.70;;
70363;SDS011;57785;43.898;1.886;2022-08-24T07:48:57;2.42;;;0.70;;
70363;SDS011;57785;43.898;1.886;2022-08-24T07:51:23;3.15;;;0.70;;
70363;SDS011;57785;43.898;1.886;2022-08-24T16:53:43;1.65;;;0.40;;
70363;SDS011;57785;43.898;1.886;2022-08-24T16:56:09;1.02;;;0.30;;
70363;SDS011;57785;43.898;1.886;2022-08-24T16:58:35;0.90;;;0.50;;
70363;SDS011;57785;43.898;1.886;2022-08-24T17:01:02;0.40;;;0.40;;
70363;SDS011;57785;43.898;1.886;2022-08-24T17:03:28;1.95;;;0.60;;
70363;SDS011;57785;43.898;1.886;2022-08-24T17:05:54;1.27;;;0.40;;
70363;SDS011;57785;43.898;1.886;2022-08-24T17:08:21;2.92;;;0.57;;
70363;SDS011;57785;43.898;1.886;2022-08-24T17:10:47;0.60;;;0.43;;
70363;SDS011;57785;43.898;1.886;2022-08-24T17:13:13;0.52;;;0.50;;
70363;SDS011;57785;43.898;1.886;2022-08-24T17:15:39;1.08;;;0.47;;
70363;SDS011;57785;43.898;1.886;2022-08-24T17:18:06;1.13;;;0.40;;
70363;SDS011;57785;43.898;1.886;2022-08-24T17:20:33;1.30;;;0.40;;
70363;SDS011;57785;43.898;1.886;2022-08-24T17:23:00;1.48;;;0.30;;
70363;SDS011;57785;43.898;1.886;2022-08-24T17:25:26;1.52;;;0.40;;
70363;SDS011;57785;43.898;1.886;2022-08-24T17:27:54;0.65;;;0.30;;
70363;SDS011;57785;43.898;1.886;2022-08-24T17:30:21;0.30;;;0.30;;
70363;SDS011;57785;43.898;1.886;2022-08-24T17:32:48;1.00;;;0.45;;
70363;SDS011;57785;43.898;1.886;2022-08-24T17:35:14;2.35;;;0.30;;
70363;SDS011;57785;43.898;1.886;2022-08-24T17:37:41;0.50;;;0.40;;
70363;SDS011;57785;43.898;1.886;2022-08-24T17:40:10;0.40;;;0.40;;
70363;SDS011;57785;43.898;1.886;2022-08-24T17:42:36;3.10;;;0.40;;
70363;SDS011;57785;43.898;1.886;2022-08-24T17:45:03;0.73;;;0.40;;
70363;SDS011;57785;43.898;1.886;2022-08-24T17:47:29;0.75;;;0.40;;
70363;SDS011;57785;43.898;1.886;2022-08-24T17:49:55;0.57;;;0.45;;
70363;SDS011;57785;43.898;1.886;2022-08-24T17:52:21;0.68;;;0.30;;
70363;SDS011;57785;43.898;1.886;2022-08-24T17:54:47;0.30;;;0.30;;
70363;SDS011;57785;43.898;1.886;2022-08-24T17:57:13;1.20;;;0.40;;
70363;SDS011;57785;43.898;1.886;2022-08-24T17:59:39;0.32;;;0.32;;
70363;SDS011;57785;43.898;1.886;2022-08-24T18:02:07;1.65;;;0.30;;
70363;SDS011;57785;43.898;1.886;2022-08-24T18:04:34;0.75;;;0.40;;
70363;SDS011;57785;43.898;1.886;2022-08-24T18:07:02;2.67;;;0.30;;
70363;SDS011;57785;43.898;1.886;2022-08-24T18:12:01;1.05;;;0.40;;
70363;SDS011;57785;43.898;1.886;2022-08-24T18:14:28;2.15;;;0.40;;
70363;SDS011;57785;43.898;1.886;2022-08-24T18:16:55;1.20;;;0.40;;
70363;SDS011;57785;43.898;1.886;2022-08-24T18:19:22;0.57;;;0.40;;
70363;SDS011;57785;43.898;1.886;2022-08-24T18:21:51;0.40;;;0.40;;
70363;SDS011;57785;43.898;1.886;2022-08-24T18:24:17;4.13;;;0.43;;
70363;SDS011;57785;43.898;1.886;2022-08-24T18:26:43;1.10;;;0.50;;
70363;SDS011;57785;43.898;1.886;2022-08-24T18:29:14;0.47;;;0.40;;
70363;SDS011;57785;43.898;1.886;2022-08-24T18:31:41;2.80;;;0.40;;
70363;SDS011;57785;43.898;1.886;2022-08-24T18:34:08;2.40;;;0.50;;
70363;SDS011;57785;43.898;1.886;2022-08-24T18:36:35;2.17;;;0.60;;
70363;SDS011;57785;43.898;1.886;2022-08-24T18:39:02;2.63;;;0.40;;
70363;SDS011;57785;43.898;1.886;2022-08-24T18:41:31;2.10;;;0.63;;
70363;SDS011;57785;43.898;1.886;2022-08-24T18:43:57;3.85;;;0.50;;
70363;SDS011;57785;43.898;1.886;2022-08-24T18:46:24;1.17;;;0.57;;
70363;SDS011;57785;43.898;1.886;2022-08-24T18:48:51;4.93;;;0.68;;
70363;SDS011;57785;43.898;1.886;2022-08-24T18:51:17;4.30;;;0.50;;
70363;SDS011;57785;43.898;1.886;2022-08-24T18:53:45;3.65;;;0.75;;
70363;SDS011;57785;43.898;1.886;2022-08-24T18:56:12;4.93;;;0.98;;
70363;SDS011;57785;43.898;1.886;2022-08-24T18:58:38;2.65;;;0.60;;
70363;SDS011;57785;43.898;1.886;2022-08-24T19:01:05;0.93;;;0.50;;
70363;SDS011;57785;43.898;1.886;2022-08-24T19:03:31;2.22;;;0.52;;
70363;SDS011;57785;43.898;1.886;2022-08-24T19:05:57;3.22;;;0.65;;
70363;SDS011;57785;43.898;1.886;2022-08-24T19:08:23;1.48;;;0.60;;
70363;SDS011;57785;43.898;1.886;2022-08-24T19:10:49;0.95;;;0.60;;
70363;SDS011;57785;43.898;1.886;2022-08-24T19:13:16;5.63;;;0.80;;
70363;SDS011;57785;43.898;1.886;2022-08-24T19:15:45;1.75;;;0.73;;
70363;SDS011;57785;43.898;1.886;2022-08-24T19:18:12;1.60;;;0.80;;
70363;SDS011;57785;43.898;1.886;2022-08-24T19:20:40;4.05;;;0.80;;
70363;SDS011;57785;43.898;1.886;2022-08-24T19:23:08;1.55;;;0.70;;
70363;SDS011;57785;43.898;1.886;2022-08-24T19:25:35;4.90;;;0.77;;
70363;SDS011;57785;43.898;1.886;2022-08-24T19:28:02;3.20;;;0.80;;
70363;SDS011;57785;43.898;1.886;2022-08-24T19:30:28;4.18;;;0.90;;
70363;SDS011;57785;43.898;1.886;2022-08-24T19:32:54;1.73;;;0.80;;
70363;SDS011;57785;43.898;1.886;2022-08-24T19:35:21;3.22;;;0.95;;
70363;SDS011;57785;43.898;1.886;2022-08-24T19:37:47;1.40;;;0.90;;
70363;SDS011;57785;43.898;1.886;2022-08-24T19:40:14;3.17;;;1.00;;
70363;SDS011;57785;43.898;1.886;2022-08-24T19:42:40;1.77;;;1.17;;
70363;SDS011;57785;43.898;1.886;2022-08-24T19:45:06;2.65;;;1.00;;
70363;SDS011;57785;43.898;1.886;2022-08-24T19:47:52;2.20;;;1.10;;
70363;SDS011;57785;43.898;1.886;2022-08-24T19:50:19;4.95;;;1.20;;
70363;SDS011;57785;43.898;1.886;2022-08-24T19:52:45;5.13;;;1.67;;
70363;SDS011;57785;43.898;1.886;2022-08-24T19:55:11;2.03;;;1.00;;
70363;SDS011;57785;43.898;1.886;2022-08-24T20:00:18;2.85;;;1.10;;
70363;SDS011;57785;43.898;1.886;2022-08-24T20:02:45;1.50;;;1.10;;
70363;SDS011;57785;43.898;1.886;2022-08-24T20:05:12;4.88;;;1.00;;
70363;SDS011;57785;43.898;1.886;2022-08-24T20:07:38;4.43;;;1.08;;
70363;SDS011;57785;43.898;1.886;2022-08-24T20:10:05;2.22;;;0.80;;
70363;SDS011;57785;43.898;1.886;2022-08-24T20:12:31;5.10;;;1.02;;
70363;SDS011;57785;43.898;1.886;2022-08-24T20:14:57;2.45;;;0.90;;
70363;SDS011;57785;43.898;1.886;2022-08-24T20:17:24;3.08;;;0.95;;
70363;SDS011;57785;43.898;1.886;2022-08-24T20:19:50;5.38;;;1.10;;
70363;SDS011;57785;43.898;1.886;2022-08-24T20:22:16;3.03;;;0.70;;
70363;SDS011;57785;43.898;1.886;2022-08-24T20:24:42;3.67;;;1.10;;
70363;SDS011;57785;43.898;1.886;2022-08-24T20:27:16;3.28;;;1.00;;
70363;SDS011;57785;43.898;1.886;2022-08-24T20:29:43;1.98;;;1.00;;
70363;SDS011;57785;43.898;1.886;2022-08-24T20:32:09;1.55;;;0.95;;
70363;SDS011;57785;43.898;1.886;2022-08-24T20:34:35;2.75;;;1.23;;
70363;SDS011;57785;43.898;1.886;2022-08-24T20:37:02;2.53;;;0.93;;
70363;SDS011;57785;43.898;1.886;2022-08-24T20:39:28;3.05;;;1.00;;
70363;SDS011;57785;43.898;1.886;2022-08-24T20:41:54;5.95;;;1.10;;
70363;SDS011;57785;43.898;1.886;2022-08-24T20:44:21;3.35;;;1.15;;
70363;SDS011;57785;43.898;1.886;2022-08-24T20:46:47;2.88;;;1.00;;
70363;SDS011;57785;43.898;1.886;2022-08-24T20:49:13;1.42;;;0.80;;
70363;SDS011;57785;43.898;1.886;2022-08-24T20:51:40;0.90;;;0.70;;
70363;SDS011;57785;43.898;1.886;2022-08-24T20:54:06;3.30;;;0.88;;
70363;SDS011;57785;43.898;1.886;2022-08-24T20:56:33;3.30;;;0.90;;
70363;SDS011;57785;43.898;1.886;2022-08-24T20:59:00;2.10;;;0.90;;
70363;SDS011;57785;43.898;1.886;2022-08-24T21:01:27;2.55;;;0.80;;
70363;SDS011;57785;43.898;1.886;2022-08-24T21:03:53;1.92;;;0.90;;
70363;SDS011;57785;43.898;1.886;2022-08-24T21:06:19;1.10;;;0.77;;
70363;SDS011;57785;43.898;1.886;2022-08-24T21:08:46;1.63;;;0.90;;
70363;SDS011;57785;43.898;1.886;2022-08-24T21:11:13;3.10;;;0.77;;
70363;SDS011;57785;43.898;1.886;2022-08-24T21:13:39;6.13;;;0.80;;
70363;SDS011;57785;43.898;1.886;2022-08-24T21:16:06;2.25;;;0.90;;
70363;SDS011;57785;43.898;1.886;2022-08-24T21:18:33;1.65;;;0.80;;
70363;SDS011;57785;43.898;1.886;2022-08-24T21:21:01;1.90;;;0.82;;
70363;SDS011;57785;43.898;1.886;2022-08-24T21:23:27;6.60;;;0.90;;
70363;SDS011;57785;43.898;1.886;2022-08-24T21:25:53;4.78;;;1.00;;
70363;SDS011;57785;43.898;1.886;2022-08-24T21:28:19;1.25;;;1.00;;
70363;SDS011;57785;43.898;1.886;2022-08-24T21:30:46;3.75;;;0.82;;
70363;SDS011;57785;43.898;1.886;2022-08-24T21:33:12;6.07;;;1.00;;
70363;SDS011;57785;43.898;1.886;2022-08-24T21:35:57;3.08;;;0.98;;
70363;SDS011;57785;43.898;1.886;2022-08-24T21:38:23;3.10;;;1.20;;
70363;SDS011;57785;43.898;1.886;2022-08-24T21:40:50;5.95;;;1.10;;
70363;SDS011;57785;43.898;1.886;2022-08-24T21:43:16;5.47;;;1.10;;
70363;SDS011;57785;43.898;1.886;2022-08-24T21:45:48;3.53;;;1.02;;
70363;SDS011;57785;43.898;1.886;2022-08-24T21:48:15;3.25;;;0.98;;
70363;SDS011;57785;43.898;1.886;2022-08-24T21:50:41;2.30;;;1.10;;
70363;SDS011;57785;43.898;1.886;2022-08-24T21:53:07;6.63;;;1.20;;
70363;SDS011;57785;43.898;1.886;2022-08-24T21:55:33;2.42;;;1.08;;
70363;SDS011;57785;43.898;1.886;2022-08-24T21:58:00;1.75;;;0.95;;
70363;SDS011;57785;43.898;1.886;2022-08-24T22:00:26;2.85;;;1.00;;
70363;SDS011;57785;43.898;1.886;2022-08-24T22:02:52;2.08;;;1.00;;
70363;SDS011;57785;43.898;1.886;2022-08-24T22:05:18;8.35;;;0.90;;
70363;SDS011;57785;43.898;1.886;2022-08-24T22:07:45;1.85;;;1.00;;
70363;SDS011;57785;43.898;1.886;2022-08-24T22:10:11;9.85;;;1.38;;
70363;SDS011;57785;43.898;1.886;2022-08-24T22:12:41;2.35;;;1.10;;
70363;SDS011;57785;43.898;1.886;2022-08-24T22:15:08;2.83;;;1.17;;
70363;SDS011;57785;43.898;1.886;2022-08-24T22:17:35;4.85;;;1.10;;
70363;SDS011;57785;43.898;1.886;2022-08-24T22:20:02;1.63;;;1.30;;
70363;SDS011;57785;43.898;1.886;2022-08-24T22:22:28;4.05;;;1.00;;
70363;SDS011;57785;43.898;1.886;2022-08-24T22:24:55;3.88;;;1.10;;
70363;SDS011;57785;43.898;1.886;2022-08-24T22:27:21;2.75;;;0.95;;
70363;SDS011;57785;43.898;1.886;2022-08-24T22:29:47;5.50;;;1.13;;
70363;SDS011;57785;43.898;1.886;2022-08-24T22:32:13;1.17;;;1.00;;
70363;SDS011;57785;43.898;1.886;2022-08-24T22:34:39;2.08;;;1.10;;
70363;SDS011;57785;43.898;1.886;2022-08-24T22:37:06;1.35;;;1.00;;
70363;SDS011;57785;43.898;1.886;2022-08-24T22:39:32;4.43;;;1.02;;
70363;SDS011;57785;43.898;1.886;2022-08-24T22:41:58;2.95;;;1.10;;
70363;SDS011;57785;43.898;1.886;2022-08-24T22:44:24;2.13;;;1.15;;
70363;SDS011;57785;43.898;1.886;2022-08-24T22:46:56;3.08;;;1.25;;
70363;SDS011;57785;43.898;1.886;2022-08-24T22:49:23;3.42;;;1.17;;
70363;SDS011;57785;43.898;1.886;2022-08-24T22:51:50;2.85;;;1.10;;
70363;SDS011;57785;43.898;1.886;2022-08-24T22:54:16;1.42;;;1.10;;
70363;SDS011;57785;43.898;1.886;2022-08-24T22:56:44;3.08;;;1.13;;
70363;SDS011;57785;43.898;1.886;2022-08-24T22:59:21;1.23;;;1.13;;
70363;SDS011;57785;43.898;1.886;2022-08-24T23:01:48;3.78;;;1.17;;
70363;SDS011;57785;43.898;1.886;2022-08-24T23:04:16;3.25;;;1.20;;
